Time,TemperatureF,DewpointF,PressureIn,WindDirection,WindDirectionDegrees,WindSpeedMPH,WindSpeedGustMPH,Humidity,HourlyPrecipIn,Conditions,Clouds,dailyrainin,SoftwareType,DateUTC
2013-02-21 00:00:00,35.0,17.7,30.18,NNE,22,5.8,5.8,49,0.00,CLR,SKC,0.00,WeatherDisplay:10.37,2013-02-21 05:00:00,
2013-02-21 00:05:00,35.0,17.7,30.18,NNE,22,5.8,5.8,49,0.00,CLR,SKC,0.00,WeatherDisplay:10.37,2013-02-21 05:05:00,
2013-02-21 00:10:00,35.0,17.7,30.16,North,360,2.3,2.3,49,0.00,CLR,SKC,0.00,WeatherDisplay:10.37,2013-02-21 05:10:00,
2013-02-21 00:15:00,35.0,17.7,30.16,WNW,292,3.5,3.5,49,0.00,CLR,SKC,0.00,WeatherDisplay:10.37,2013-02-21 05:15:00,
2013-02-21 00:20:00,35.0,17.7,30.17,NNW,337,4.6,4.6,49,0.00,CLR,SKC,0.00,WeatherDisplay:10.37,2013-02-21 05:20:00,
2013-02-21 00:25:00,35.0,17.7,30.17,NNE,22,4.6,4.6,49,0.00,CLR,SKC,0.00,WeatherDisplay:10.37,2013-02-21 05:25:00,
2013-02-21 00:30:00,35.0,17.7,30.18,NNE,22,4.6,4.6,49,0.00,CLR,SKC,0.00,WeatherDisplay:10.37,2013-02-21 05:30:00,
2013-02-21 00:35:00,35.0,17.7,30.18,West,270,4.0,4.0,49,0.00,CLR,SKC,0.00,WeatherDisplay:10.37,2013-02-21 05:35:00,
2013-02-21 00:40:00,35.0,18.2,30.18,West,270,4.0,4.0,50,0.00,CLR,SKC,0.00,WeatherDisplay:10.37,2013-02-21 05:40:00,
2013-02-21 00:45:00,35.0,18.2,30.18,West,270,3.5,3.5,50,0.00,CLR,SKC,0.00,WeatherDisplay:10.37,2013-02-21 05:45:00,
2013-02-21 00:50:00,34.0,16.8,30.19,WNW,292,3.5,3.5,49,0.00,CLR,SKC,0.00,WeatherDisplay:10.37,2013-02-21 05:50:00,
2013-02-21 00:56:00,34.0,17.3,30.19,WNW,292,1.1,1.1,50,0.00,CLR,SKC,0.00,WeatherDisplay:10.37,2013-02-21 05:56:00,
2013-02-21 01:01:00,34.0,17.3,30.18,WNW,292,3.5,3.5,50,0.00,CLR,SKC,0.00,WeatherDisplay:10.37,2013-02-21 06:01:00,
2013-02-21 01:06:00,34.0,17.7,30.18,WNW,292,2.3,2.3,51,0.00,CLR,SKC,0.00,WeatherDisplay:10.37,2013-02-21 06:06:00,
2013-02-21 01:11:00,34.0,17.7,30.17,North,360,0.0,0.0,51,0.00,CLR,SKC,0.00,WeatherDisplay:10.37,2013-02-21 06:11:00,
2013-02-21 01:16:00,34.0,17.7,30.17,North,360,2.3,2.3,51,0.00,CLR,SKC,0.00,WeatherDisplay:10.37,2013-02-21 06:16:00,
2013-02-21 01:21:00,34.0,18.2,30.17,North,360,3.5,3.5,52,0.00,CLR,SKC,0.00,WeatherDisplay:10.37,2013-02-21 06:21:00,
2013-02-21 01:26:00,34.0,18.6,30.17,North,360,0.0,0.0,53,0.00,CLR,SKC,0.00,WeatherDisplay:10.37,2013-02-21 06:26:00,
2013-02-21 01:31:00,33.0,17.7,30.18,North,360,2.3,2.3,53,0.00,CLR,SKC,0.00,WeatherDisplay:10.37,2013-02-21 06:31:00,
2013-02-21 01:36:00,33.0,18.1,30.18,North,360,0.0,0.0,54,0.00,CLR,SKC,0.00,WeatherDisplay:10.37,2013-02-21 06:36:00,
2013-02-21 01:41:00,33.0,18.6,30.19,North,360,2.3,2.3,55,0.00,CLR,SKC,0.00,WeatherDisplay:10.37,2013-02-21 06:41:00,
2013-02-21 01:46:00,33.0,19.0,30.19,North,360,3.5,3.5,56,0.00,CLR,SKC,0.00,WeatherDisplay:10.37,2013-02-21 06:46:00,
2013-02-21 01:51:00,32.0,18.1,30.19,North,360,0.0,0.0,56,0.00,CLR,SKC,0.00,WeatherDisplay:10.37,2013-02-21 06:51:00,
2013-02-21 01:56:00,32.0,18.5,30.19,North,360,1.1,1.1,57,0.00,CLR,SKC,0.00,WeatherDisplay:10.37,2013-02-21 06:56:00,
2013-02-21 02:01:00,32.0,18.9,30.19,North,360,1.1,1.1,58,0.00,CLR,SKC,0.00,WeatherDisplay:10.37,2013-02-21 07:01:00,
2013-02-21 02:06:00,32.0,19.7,30.19,NE,45,3.5,3.5,60,0.00,CLR,SKC,0.00,WeatherDisplay:10.37,2013-02-21 07:06:00,
2013-02-21 02:11:00,32.0,19.7,30.18,NNE,22,3.5,3.5,60,0.00,CLR,SKC,0.00,WeatherDisplay:10.37,2013-02-21 07:11:00,
2013-02-21 02:16:00,32.0,19.7,30.18,NNE,22,1.1,0.0,60,0.00,CLR,SKC,0.00,WeatherDisplay:10.37,2013-02-21 07:16:00,
2013-02-21 02:21:00,31.0,19.5,30.18,NNE,22,0.0,0.0,62,0.00,CLR,SKC,0.00,WeatherDisplay:10.37,2013-02-21 07:21:00,
2013-02-21 02:26:00,31.0,19.9,30.18,NNE,22,0.0,0.0,63,0.00,CLR,SKC,0.00,WeatherDisplay:10.37,2013-02-21 07:26:00,
2013-02-21 02:31:00,31.0,19.5,30.19,NNE,22,0.0,0.0,62,0.00,CLR,SKC,0.00,WeatherDisplay:10.37,2013-02-21 07:31:00,
2013-02-21 02:36:00,30.0,18.5,30.19,NNE,22,0.0,0.0,62,0.00,CLR,SKC,0.00,WeatherDisplay:10.37,2013-02-21 07:36:00,
2013-02-21 02:41:00,30.0,18.5,30.20,NNE,22,0.0,0.0,62,0.00,CLR,SKC,0.00,WeatherDisplay:10.37,2013-02-21 07:41:00,
2013-02-21 02:46:00,30.0,19.7,30.20,NNE,22,0.0,0.0,65,0.00,CLR,SKC,0.00,WeatherDisplay:10.37,2013-02-21 07:46:00,
2013-02-21 02:51:00,29.0,19.8,30.21,NNE,22,0.0,0.0,68,0.00,CLR,SKC,0.00,WeatherDisplay:10.37,2013-02-21 07:51:00,
2013-02-21 02:56:00,29.0,18.7,30.21,NNE,22,0.0,0.0,65,0.00,CLR,SKC,0.00,WeatherDisplay:10.37,2013-02-21 07:56:00,
2013-02-21 03:01:00,29.0,19.1,30.21,NNE,22,0.0,0.0,66,0.00,CLR,SKC,0.00,WeatherDisplay:10.37,2013-02-21 08:01:00,
2013-02-21 03:06:00,28.0,19.5,30.21,NNE,22,0.0,0.0,70,0.00,CLR,SKC,0.00,WeatherDisplay:10.37,2013-02-21 08:06:00,
2013-02-21 03:11:00,28.0,19.5,30.22,NNW,337,0.0,0.0,70,0.00,CLR,SKC,0.00,WeatherDisplay:10.37,2013-02-21 08:11:00,
2013-02-21 03:16:00,28.0,20.1,30.22,NNW,337,0.0,0.0,72,0.00,CLR,SKC,0.00,WeatherDisplay:10.37,2013-02-21 08:16:00,
2013-02-21 03:21:00,27.0,19.5,30.23,NNW,337,0.0,0.0,73,0.00,CLR,SKC,0.00,WeatherDisplay:10.37,2013-02-21 08:21:00,
2013-02-21 03:26:00,26.0,18.5,30.23,NNW,337,0.0,0.0,73,0.00,CLR,SKC,0.00,WeatherDisplay:10.37,2013-02-21 08:26:00,
2013-02-21 03:31:00,26.0,18.8,30.23,NNW,337,2.3,2.3,74,0.00,CLR,SKC,0.00,WeatherDisplay:10.37,2013-02-21 08:31:00,
2013-02-21 03:36:00,27.0,20.1,30.23,NW,315,0.0,0.0,75,0.00,CLR,SKC,0.00,WeatherDisplay:10.37,2013-02-21 08:36:00,
2013-02-21 03:41:00,26.0,19.5,30.23,NW,315,3.5,3.5,76,0.00,CLR,SKC,0.00,WeatherDisplay:10.37,2013-02-21 08:41:00,
2013-02-21 03:46:00,26.0,19.5,30.23,NW,315,1.0,1.0,76,0.00,CLR,SKC,0.00,WeatherDisplay:10.37,2013-02-21 08:46:00,
2013-02-21 03:51:00,26.0,19.5,30.23,NW,315,0.0,0.0,76,0.00,CLR,SKC,0.00,WeatherDisplay:10.37,2013-02-21 08:51:00,
2013-02-21 03:56:00,26.0,19.2,30.23,NW,315,3.5,3.5,75,0.00,CLR,SKC,0.00,WeatherDisplay:10.37,2013-02-21 08:56:00,
2013-02-21 04:01:00,26.0,18.8,30.25,NW,315,3.5,3.5,74,0.00,CLR,SKC,0.00,WeatherDisplay:10.37,2013-02-21 09:01:00,
2013-02-21 04:06:00,27.0,18.5,30.25,NW,315,3.5,3.5,70,0.00,CLR,SKC,0.00,WeatherDisplay:10.37,2013-02-21 09:06:00,
2013-02-21 04:11:00,27.0,17.5,30.24,NW,315,2.3,2.3,67,0.00,CLR,SKC,0.00,WeatherDisplay:10.37,2013-02-21 09:11:00,
2013-02-21 04:16:00,28.0,18.5,30.24,NW,315,3.5,3.5,67,0.00,CLR,SKC,0.00,WeatherDisplay:10.37,2013-02-21 09:16:00,
2013-02-21 04:21:00,28.0,18.1,30.23,NW,315,1.1,1.1,66,0.00,CLR,SKC,0.00,WeatherDisplay:10.37,2013-02-21 09:21:00,
2013-02-21 04:26:00,28.0,18.1,30.23,NW,315,0.0,0.0,66,0.00,CLR,SKC,0.00,WeatherDisplay:10.37,2013-02-21 09:26:00,
2013-02-21 04:31:00,28.0,18.1,30.24,NW,315,0.0,0.0,66,0.00,CLR,SKC,0.00,WeatherDisplay:10.37,2013-02-21 09:31:00,
2013-02-21 04:36:00,27.0,17.5,30.24,NW,315,3.5,3.5,67,0.00,CLR,SKC,0.00,WeatherDisplay:10.37,2013-02-21 09:36:00,
2013-02-21 04:41:00,27.0,17.1,30.24,NW,315,2.3,2.3,66,0.00,CLR,SKC,0.00,WeatherDisplay:10.37,2013-02-21 09:41:00,
2013-02-21 04:46:00,28.0,18.5,30.24,NW,315,0.0,0.0,67,0.00,CLR,SKC,0.00,WeatherDisplay:10.37,2013-02-21 09:46:00,
2013-02-21 04:51:00,27.0,17.5,30.24,NW,315,0.0,0.0,67,0.00,CLR,SKC,0.00,WeatherDisplay:10.37,2013-02-21 09:51:00,
2013-02-21 04:56:00,27.0,17.8,30.24,NW,315,0.0,0.0,68,0.00,CLR,SKC,0.00,WeatherDisplay:10.37,2013-02-21 09:56:00,
2013-02-21 05:01:00,26.0,18.5,30.24,NW,315,0.0,0.0,73,0.00,CLR,SKC,0.00,WeatherDisplay:10.37,2013-02-21 10:01:00,
2013-02-21 05:06:00,26.0,18.8,30.24,NW,315,0.0,0.0,74,0.00,CLR,SKC,0.00,WeatherDisplay:10.37,2013-02-21 10:06:00,
2013-02-21 05:11:00,25.0,20.6,30.25,NW,315,0.0,0.0,83,0.00,CLR,SKC,0.00,WeatherDisplay:10.37,2013-02-21 10:11:00,
2013-02-21 05:16:00,25.0,20.0,30.25,NW,315,0.0,0.0,81,0.00,CLR,SKC,0.00,WeatherDisplay:10.37,2013-02-21 10:16:00,
2013-02-21 05:21:00,24.0,18.4,30.25,NW,315,0.0,0.0,79,0.00,CLR,SKC,0.00,WeatherDisplay:10.37,2013-02-21 10:21:00,
2013-02-21 05:26:00,24.0,18.4,30.25,NW,315,0.0,0.0,79,0.00,CLR,SKC,0.00,WeatherDisplay:10.37,2013-02-21 10:26:00,
2013-02-21 05:31:00,24.0,19.9,30.26,NW,315,0.0,0.0,84,0.00,CLR,SKC,0.00,WeatherDisplay:10.37,2013-02-21 10:31:00,
2013-02-21 05:36:00,23.0,19.2,30.26,NW,315,0.0,0.0,85,0.00,CLR,SKC,0.00,WeatherDisplay:10.37,2013-02-21 10:36:00,
2013-02-21 05:41:00,24.0,19.0,30.27,NW,315,1.1,1.1,81,0.00,CLR,SKC,0.00,WeatherDisplay:10.37,2013-02-21 10:41:00,
2013-02-21 05:46:00,24.0,19.6,30.27,NW,315,0.0,0.0,83,0.00,CLR,SKC,0.00,WeatherDisplay:10.37,2013-02-21 10:46:00,
2013-02-21 05:51:00,23.0,19.7,30.27,NW,315,0.0,0.0,87,0.00,CLR,SKC,0.00,WeatherDisplay:10.37,2013-02-21 10:51:00,
2013-02-21 05:56:00,23.0,20.0,30.27,NW,315,0.0,0.0,88,0.00,CLR,SKC,0.00,WeatherDisplay:10.37,2013-02-21 10:56:00,
2013-02-21 06:01:00,23.0,19.7,30.27,NW,315,0.0,0.0,87,0.00,CLR,SKC,0.00,WeatherDisplay:10.37,2013-02-21 11:01:00,
2013-02-21 06:06:00,23.0,19.2,30.27,NW,315,3.5,3.5,85,0.00,CLR,SKC,0.00,WeatherDisplay:10.37,2013-02-21 11:06:00,
2013-02-21 06:11:00,23.0,19.4,30.28,NW,315,2.3,2.3,86,0.00,CLR,SKC,0.00,WeatherDisplay:10.37,2013-02-21 11:11:00,
2013-02-21 06:16:00,23.0,20.5,30.28,NW,315,0.0,0.0,90,0.00,CLR,SKC,0.00,WeatherDisplay:10.37,2013-02-21 11:16:00,
2013-02-21 06:21:00,23.0,20.0,30.28,NW,315,0.0,0.0,88,0.00,CLR,SKC,0.00,WeatherDisplay:10.37,2013-02-21 11:21:00,
2013-02-21 06:26:00,23.0,20.2,30.28,NW,315,0.0,0.0,89,0.00,CLR,SKC,0.00,WeatherDisplay:10.37,2013-02-21 11:26:00,
2013-02-21 06:31:00,23.0,20.2,30.28,NW,315,0.0,0.0,89,0.00,CLR,SKC,0.00,WeatherDisplay:10.37,2013-02-21 11:31:00,
2013-02-21 06:36:00,23.0,20.5,30.28,NW,315,0.0,0.0,90,0.00,CLR,SKC,0.00,WeatherDisplay:10.37,2013-02-21 11:36:00,
2013-02-21 06:41:00,23.0,21.0,30.29,NW,315,0.0,0.0,92,0.00,CLR,SKC,0.00,WeatherDisplay:10.37,2013-02-21 11:41:00,
2013-02-21 06:46:00,23.0,20.8,30.29,NW,315,0.0,0.0,91,0.00,CLR,SKC,0.00,WeatherDisplay:10.37,2013-02-21 11:46:00,
2013-02-21 06:51:00,22.0,19.8,30.29,NW,315,0.0,0.0,91,0.00,CLR,SKC,0.00,WeatherDisplay:10.37,2013-02-21 11:51:00,
2013-02-21 06:56:00,22.0,20.0,30.29,NW,315,0.0,0.0,92,0.00,CLR,SKC,0.00,WeatherDisplay:10.37,2013-02-21 11:56:00,
2013-02-21 07:01:00,22.0,20.0,30.31,NW,315,0.0,0.0,92,0.00,CLR,SKC,0.00,WeatherDisplay:10.37,2013-02-21 12:01:00,
2013-02-21 07:06:00,22.0,20.0,30.31,NW,315,0.0,0.0,92,0.00,CLR,SKC,0.00,WeatherDisplay:10.37,2013-02-21 12:06:00,
2013-02-21 07:11:00,22.0,20.5,30.31,NW,315,0.0,0.0,94,0.00,CLR,SKC,0.00,WeatherDisplay:10.37,2013-02-21 12:11:00,
2013-02-21 07:16:00,22.0,20.8,30.31,NW,315,0.0,0.0,95,0.00,CLR,SKC,0.00,WeatherDisplay:10.37,2013-02-21 12:16:00,
2013-02-21 07:21:00,23.0,21.8,30.30,NW,315,0.0,0.0,95,0.00,CLR,SKC,0.00,WeatherDisplay:10.37,2013-02-21 12:21:00,
2013-02-21 07:26:00,23.0,22.3,30.30,NW,315,0.0,0.0,97,0.00,CLR,SKC,0.00,WeatherDisplay:10.37,2013-02-21 12:26:00,
2013-02-21 07:31:00,24.0,22.8,30.29,NW,315,0.0,0.0,95,0.00,CLR,SKC,0.00,WeatherDisplay:10.37,2013-02-21 12:31:00,
2013-02-21 07:36:00,25.0,23.5,30.29,NW,315,0.0,0.0,94,0.00,CLR,SKC,0.00,WeatherDisplay:10.37,2013-02-21 12:36:00,
2013-02-21 07:41:00,26.0,24.5,30.28,NW,315,0.0,0.0,94,0.00,CLR,SKC,0.00,WeatherDisplay:10.37,2013-02-21 12:41:00,
2013-02-21 07:46:00,27.0,25.0,30.28,NW,315,0.0,0.0,92,0.00,CLR,SKC,0.00,WeatherDisplay:10.37,2013-02-21 12:46:00,
2013-02-21 07:51:00,29.0,25.6,30.27,NW,315,0.0,0.0,87,0.00,CLR,SKC,0.00,WeatherDisplay:10.37,2013-02-21 12:51:00,
2013-02-21 07:56:00,30.0,26.9,30.27,NW,315,0.0,0.0,88,0.00,CLR,SKC,0.00,WeatherDisplay:10.37,2013-02-21 12:56:00,
2013-02-21 08:01:00,31.0,27.6,30.25,NW,315,0.0,0.0,87,0.00,CLR,SKC,0.00,WeatherDisplay:10.37,2013-02-21 13:01:00,
2013-02-21 08:06:00,32.0,28.0,30.25,NW,315,0.0,0.0,85,0.00,CLR,SKC,0.00,WeatherDisplay:10.37,2013-02-21 13:06:00,
2013-02-21 08:11:00,33.0,27.8,30.23,NW,315,1.1,0.0,81,0.00,CLR,SKC,0.00,WeatherDisplay:10.37,2013-02-21 13:11:00,
2013-02-21 08:16:00,33.0,22.9,30.23,NNE,22,7.0,7.0,66,0.00,CLR,SKC,0.00,WeatherDisplay:10.37,2013-02-21 13:16:00,
2013-02-21 08:21:00,33.0,20.6,30.22,NNE,22,9.2,9.2,60,0.00,CLR,SKC,0.00,WeatherDisplay:10.37,2013-02-21 13:21:00,
2013-02-21 08:26:00,33.0,20.6,30.22,NNE,22,5.8,5.8,60,0.00,CLR,SKC,0.00,WeatherDisplay:10.37,2013-02-21 13:26:00,
2013-02-21 08:31:00,34.0,20.8,30.23,WNW,292,3.5,3.5,58,0.00,CLR,SKC,0.00,WeatherDisplay:10.37,2013-02-21 13:31:00,
2013-02-21 08:36:00,34.0,19.1,30.23,ENE,67,6.9,6.9,54,0.00,CLR,SKC,0.00,WeatherDisplay:10.37,2013-02-21 13:36:00,
2013-02-21 08:41:00,35.0,20.9,30.22,WNW,292,3.5,3.5,56,0.00,CLR,SKC,0.00,WeatherDisplay:10.37,2013-02-21 13:41:00,
2013-02-21 08:46:00,35.0,20.0,30.22,NW,315,8.1,8.1,54,0.00,CLR,SKC,0.00,WeatherDisplay:10.37,2013-02-21 13:46:00,
2013-02-21 08:51:00,35.0,19.6,30.22,NNE,22,8.0,8.0,53,0.00,CLR,SKC,0.00,WeatherDisplay:10.37,2013-02-21 13:51:00,
2013-02-21 08:56:00,35.0,18.7,30.22,North,360,6.9,6.9,51,0.00,CLR,SKC,0.00,WeatherDisplay:10.37,2013-02-21 13:56:00,
2013-02-21 09:01:00,36.0,19.6,30.23,NW,315,3.5,3.5,51,0.00,CLR,SKC,0.00,WeatherDisplay:10.37,2013-02-21 14:01:00,
2013-02-21 09:06:00,36.0,18.7,30.23,WSW,247,8.1,8.1,49,0.00,CLR,SKC,0.00,WeatherDisplay:10.37,2013-02-21 14:06:00,
2013-02-21 09:11:00,36.0,19.1,30.21,NNE,22,6.0,6.0,50,0.00,CLR,SKC,0.00,WeatherDisplay:10.37,2013-02-21 14:11:00,
2013-02-21 09:16:00,37.0,19.6,30.21,WNW,292,3.5,3.5,49,0.00,CLR,SKC,0.00,WeatherDisplay:10.37,2013-02-21 14:16:00,
2013-02-21 09:21:00,37.0,19.6,30.22,NNE,22,5.8,5.8,49,0.00,CLR,SKC,0.00,WeatherDisplay:10.37,2013-02-21 14:21:00,
2013-02-21 09:26:00,37.0,19.1,30.22,WSW,247,6.9,6.9,48,0.00,CLR,SKC,0.00,WeatherDisplay:10.37,2013-02-21 14:26:00,
2013-02-21 09:31:00,38.0,19.5,30.22,North,360,5.8,5.8,47,0.00,CLR,SKC,0.00,WeatherDisplay:10.37,2013-02-21 14:31:00,
2013-02-21 09:36:00,38.0,19.5,30.22,West,270,4.6,4.6,47,0.00,CLR,SKC,0.00,WeatherDisplay:10.37,2013-02-21 14:36:00,
2013-02-21 09:41:00,38.0,19.0,30.21,WNW,292,4.6,4.6,46,0.00,CLR,SKC,0.00,WeatherDisplay:10.37,2013-02-21 14:41:00,
2013-02-21 09:46:00,38.0,19.0,30.21,WSW,247,5.8,5.9,46,0.00,CLR,SKC,0.00,WeatherDisplay:10.37,2013-02-21 14:46:00,
2013-02-21 09:51:00,38.0,19.5,30.21,WSW,247,5.0,5.0,47,0.00,CLR,SKC,0.00,WeatherDisplay:10.37,2013-02-21 14:51:00,
2013-02-21 09:56:00,39.0,19.9,30.21,West,270,3.5,3.5,46,0.00,CLR,SKC,0.00,WeatherDisplay:10.37,2013-02-21 14:56:00,
2013-02-21 10:01:00,39.0,18.9,30.20,WSW,247,7.0,7.0,44,0.00,CLR,SKC,0.00,WeatherDisplay:10.37,2013-02-21 15:01:00,
2013-02-21 10:06:00,39.0,18.9,30.20,South,180,5.8,5.8,44,0.00,CLR,SKC,0.00,WeatherDisplay:10.37,2013-02-21 15:06:00,
2013-02-21 10:11:00,40.0,20.3,30.20,WSW,247,7.0,7.0,45,0.00,CLR,SKC,0.00,WeatherDisplay:10.37,2013-02-21 15:11:00,
2013-02-21 10:16:00,40.0,20.9,30.20,North,360,3.5,3.5,46,0.00,CLR,SKC,0.00,WeatherDisplay:10.37,2013-02-21 15:16:00,
2013-02-21 10:21:00,41.0,20.7,30.19,SW,225,4.6,4.6,44,0.00,CLR,SKC,0.00,WeatherDisplay:10.37,2013-02-21 15:21:00,
2013-02-21 10:26:00,42.0,21.1,30.19,WSW,247,9.2,9.2,43,0.00,CLR,SKC,0.00,WeatherDisplay:10.37,2013-02-21 15:26:00,
2013-02-21 10:31:00,41.0,20.2,30.19,West,270,3.5,3.5,43,0.00,CLR,SKC,0.00,WeatherDisplay:10.37,2013-02-21 15:31:00,
2013-02-21 10:36:00,42.0,20.5,30.19,North,360,5.8,5.8,42,0.00,CLR,SKC,0.00,WeatherDisplay:10.37,2013-02-21 15:36:00,
2013-02-21 10:41:00,42.0,20.5,30.19,NNW,337,10.4,10.4,42,0.00,CLR,SKC,0.00,WeatherDisplay:10.37,2013-02-21 15:41:00,
2013-02-21 10:46:00,41.0,19.1,30.19,WNW,292,6.9,6.9,41,0.00,CLR,SKC,0.00,WeatherDisplay:10.37,2013-02-21 15:46:00,
2013-02-21 10:51:00,42.0,20.0,30.18,West,270,6.0,6.0,41,0.00,CLR,SKC,0.00,WeatherDisplay:10.37,2013-02-21 15:51:00,
2013-02-21 10:56:00,41.0,18.5,30.18,West,270,10.4,10.4,40,0.00,CLR,SKC,0.00,WeatherDisplay:10.37,2013-02-21 15:56:00,
2013-02-21 11:01:00,41.0,19.1,30.19,West,270,7.0,7.0,41,0.00,CLR,SKC,0.00,WeatherDisplay:10.37,2013-02-21 16:01:00,
2013-02-21 11:06:00,42.0,20.0,30.19,West,270,4.6,4.6,41,0.00,CLR,SKC,0.00,WeatherDisplay:10.37,2013-02-21 16:06:00,
2013-02-21 11:11:00,43.0,20.9,30.19,NNW,337,5.8,5.8,41,0.00,CLR,SKC,0.00,WeatherDisplay:10.37,2013-02-21 16:11:00,
2013-02-21 11:16:00,43.0,19.7,30.19,West,270,9.2,9.2,39,0.00,CLR,SKC,0.00,WeatherDisplay:10.37,2013-02-21 16:16:00,
2013-02-21 11:21:00,43.0,20.3,30.19,West,270,10.4,10.4,40,0.00,CLR,SKC,0.00,WeatherDisplay:10.37,2013-02-21 16:21:00,
2013-02-21 11:26:00,43.0,20.3,30.19,WSW,247,10.4,10.4,40,0.00,CLR,SKC,0.00,WeatherDisplay:10.37,2013-02-21 16:26:00,
2013-02-21 11:31:00,42.0,18.2,30.19,NNE,22,9.2,9.2,38,0.00,CLR,SKC,0.00,WeatherDisplay:10.37,2013-02-21 16:31:00,
2013-02-21 11:36:00,44.0,21.2,30.19,WNW,292,6.9,6.9,40,0.00,CLR,SKC,0.00,WeatherDisplay:10.37,2013-02-21 16:36:00,
2013-02-21 11:41:00,44.0,20.0,30.19,West,270,11.5,11.5,38,0.00,CLR,SKC,0.00,WeatherDisplay:10.37,2013-02-21 16:41:00,
2013-02-21 11:46:00,44.0,21.2,30.19,West,270,11.5,11.5,40,0.00,CLR,SKC,0.00,WeatherDisplay:10.37,2013-02-21 16:46:00,
2013-02-21 11:51:00,44.0,21.2,30.19,WSW,247,10.4,10.4,40,0.00,CLR,SKC,0.00,WeatherDisplay:10.37,2013-02-21 16:51:00,
2013-02-21 11:56:00,44.0,20.0,30.19,WSW,247,10.4,10.4,38,0.00,CLR,SKC,0.00,WeatherDisplay:10.37,2013-02-21 16:56:00,
2013-02-21 12:01:00,45.0,21.5,30.18,West,270,6.0,6.0,39,0.00,CLR,SKC,0.00,WeatherDisplay:10.37,2013-02-21 17:01:00,
2013-02-21 12:06:00,46.0,21.8,30.18,NW,315,5.8,5.8,38,0.00,CLR,SKC,0.00,WeatherDisplay:10.37,2013-02-21 17:06:00,
2013-02-21 12:11:00,47.0,22.7,30.17,NNE,22,6.9,6.9,38,0.00,CLR,SKC,0.00,WeatherDisplay:10.37,2013-02-21 17:11:00,
2013-02-21 12:16:00,47.0,21.4,30.17,WSW,247,11.5,11.5,36,0.00,CLR,SKC,0.00,WeatherDisplay:10.37,2013-02-21 17:16:00,
2013-02-21 12:21:00,47.0,22.0,30.17,North,360,6.9,6.9,37,0.00,CLR,SKC,0.00,WeatherDisplay:10.37,2013-02-21 17:21:00,
2013-02-21 12:26:00,48.0,22.3,30.17,West,270,6.9,6.9,36,0.00,CLR,SKC,0.00,WeatherDisplay:10.37,2013-02-21 17:26:00,
2013-02-21 12:31:00,47.0,20.7,30.15,West,270,11.0,11.0,35,0.00,CLR,SKC,0.00,WeatherDisplay:10.37,2013-02-21 17:31:00,
2013-02-21 12:36:00,47.0,21.4,30.15,West,270,7.0,7.0,36,0.00,CLR,SKC,0.00,WeatherDisplay:10.37,2013-02-21 17:36:00,
2013-02-21 12:41:00,47.0,20.7,30.15,WSW,247,8.1,8.1,35,0.00,CLR,SKC,0.00,WeatherDisplay:10.37,2013-02-21 17:41:00,
2013-02-21 12:46:00,48.0,21.6,30.15,WSW,247,7.0,7.0,35,0.00,CLR,SKC,0.00,WeatherDisplay:10.37,2013-02-21 17:46:00,
2013-02-21 12:51:00,48.0,21.6,30.14,WNW,292,8.1,8.1,35,0.00,CLR,SKC,0.00,WeatherDisplay:10.37,2013-02-21 17:51:00,
2013-02-21 12:56:00,48.0,20.9,30.14,WSW,247,5.8,5.8,34,0.00,CLR,SKC,0.00,WeatherDisplay:10.37,2013-02-21 17:56:00,
2013-02-21 13:01:00,49.0,21.1,30.13,WSW,247,10.0,10.0,33,0.00,CLR,SKC,0.00,WeatherDisplay:10.37,2013-02-21 18:01:00,
2013-02-21 13:06:00,49.0,20.4,30.13,West,270,6.9,6.9,32,0.00,CLR,SKC,0.00,WeatherDisplay:10.37,2013-02-21 18:06:00,
2013-02-21 13:11:00,50.0,20.5,30.13,NNE,22,6.9,6.9,31,0.00,CLR,SKC,0.00,WeatherDisplay:10.37,2013-02-21 18:11:00,
2013-02-21 13:16:00,50.0,20.5,30.13,NW,315,4.0,4.0,31,0.00,CLR,SKC,0.00,WeatherDisplay:10.37,2013-02-21 18:16:00,
2013-02-21 13:21:00,50.0,20.5,30.11,WNW,292,8.1,8.1,31,0.00,CLR,SKC,0.00,WeatherDisplay:10.37,2013-02-21 18:21:00,
2013-02-21 13:26:00,51.0,22.1,30.11,West,270,8.0,8.0,32,0.00,CLR,SKC,0.00,WeatherDisplay:10.37,2013-02-21 18:26:00,
2013-02-21 13:31:00,50.0,21.3,30.10,West,270,6.9,6.9,32,0.00,CLR,SKC,0.00,WeatherDisplay:10.37,2013-02-21 18:31:00,
2013-02-21 13:36:00,51.0,22.1,30.10,WSW,247,8.0,8.0,32,0.00,CLR,SKC,0.00,WeatherDisplay:10.37,2013-02-21 18:36:00,
2013-02-21 13:41:00,50.0,21.3,30.10,WSW,247,9.2,9.2,32,0.00,CLR,SKC,0.00,WeatherDisplay:10.37,2013-02-21 18:41:00,
2013-02-21 13:46:00,51.0,22.1,30.10,WSW,247,9.2,9.2,32,0.00,CLR,SKC,0.00,WeatherDisplay:10.37,2013-02-21 18:46:00,
2013-02-21 13:51:00,51.0,22.1,30.09,WSW,247,9.2,9.2,32,0.00,CLR,SKC,0.00,WeatherDisplay:10.37,2013-02-21 18:51:00,
2013-02-21 13:56:00,51.0,22.9,30.09,WSW,247,7.0,7.0,33,0.00,CLR,SKC,0.00,WeatherDisplay:10.37,2013-02-21 18:56:00,
2013-02-21 14:01:00,51.0,21.4,30.09,West,270,8.1,8.1,31,0.00,CLR,SKC,0.00,WeatherDisplay:10.37,2013-02-21 19:01:00,
2013-02-21 14:06:00,51.0,21.4,30.09,WSW,247,5.8,5.8,31,0.00,CLR,SKC,0.00,WeatherDisplay:10.37,2013-02-21 19:06:00,
2013-02-21 14:11:00,50.0,20.5,30.08,NNW,337,11.5,11.5,31,0.00,CLR,SKC,0.00,WeatherDisplay:10.37,2013-02-21 19:11:00,
2013-02-21 14:16:00,50.0,20.5,30.08,West,270,7.0,7.0,31,0.00,CLR,SKC,0.00,WeatherDisplay:10.37,2013-02-21 19:16:00,
2013-02-21 14:21:00,51.0,21.4,30.07,West,270,7.0,7.0,31,0.00,CLR,SKC,0.00,WeatherDisplay:10.37,2013-02-21 19:21:00,
2013-02-21 14:26:00,51.0,20.6,30.07,ENE,67,4.6,4.6,30,0.00,CLR,SKC,0.00,WeatherDisplay:10.37,2013-02-21 19:26:00,
2013-02-21 14:31:00,52.0,22.3,30.07,West,270,8.1,8.1,31,0.00,CLR,SKC,0.00,WeatherDisplay:10.37,2013-02-21 19:31:00,
2013-02-21 14:36:00,52.0,22.3,30.07,NNW,337,9.2,9.2,31,0.00,CLR,SKC,0.00,WeatherDisplay:10.37,2013-02-21 19:36:00,
2013-02-21 14:41:00,52.0,22.3,30.07,WNW,292,6.0,6.0,31,0.00,CLR,SKC,0.00,WeatherDisplay:10.37,2013-02-21 19:41:00,
2013-02-21 14:46:00,52.0,22.3,30.07,North,360,5.8,5.8,31,0.00,CLR,SKC,0.00,WeatherDisplay:10.37,2013-02-21 19:46:00,
2013-02-21 14:51:00,52.0,22.3,30.06,NW,315,3.5,3.5,31,0.00,CLR,SKC,0.00,WeatherDisplay:10.37,2013-02-21 19:51:00,
2013-02-21 14:56:00,52.0,22.3,30.06,West,270,7.0,7.0,31,0.00,CLR,SKC,0.00,WeatherDisplay:10.37,2013-02-21 19:56:00,
2013-02-21 15:01:00,52.0,23.0,30.06,NNE,22,6.9,6.9,32,0.00,CLR,SKC,0.00,WeatherDisplay:10.37,2013-02-21 20:01:00,
2013-02-21 15:06:00,52.0,23.0,30.06,NNW,337,8.1,8.1,32,0.00,CLR,SKC,0.00,WeatherDisplay:10.37,2013-02-21 20:06:00,
2013-02-21 15:11:00,52.0,22.3,30.07,West,270,9.0,9.0,31,0.00,CLR,SKC,0.00,WeatherDisplay:10.37,2013-02-21 20:11:00,
2013-02-21 15:16:00,52.0,23.8,30.07,NNE,22,6.9,6.9,33,0.00,CLR,SKC,0.00,WeatherDisplay:10.37,2013-02-21 20:16:00,
2013-02-21 15:21:00,52.0,23.8,30.06,North,360,4.6,4.6,33,0.00,CLR,SKC,0.00,WeatherDisplay:10.37,2013-02-21 20:21:00,
2013-02-21 15:26:00,52.0,22.3,30.06,NNW,337,4.6,4.6,31,0.00,CLR,SKC,0.00,WeatherDisplay:10.37,2013-02-21 20:26:00,
2013-02-21 15:31:00,52.0,22.3,30.07,NNW,337,9.2,9.2,31,0.00,CLR,SKC,0.00,WeatherDisplay:10.37,2013-02-21 20:31:00,
2013-02-21 15:36:00,52.0,22.3,30.07,NNE,22,4.0,4.0,31,0.00,CLR,SKC,0.00,WeatherDisplay:10.37,2013-02-21 20:36:00,
2013-02-21 15:41:00,52.0,22.3,30.07,NNE,22,8.1,8.1,31,0.00,CLR,SKC,0.00,WeatherDisplay:10.37,2013-02-21 20:41:00,
2013-02-21 15:46:00,52.0,22.3,30.07,North,360,6.9,6.9,31,0.00,CLR,SKC,0.00,WeatherDisplay:10.37,2013-02-21 20:46:00,
2013-02-21 15:51:00,52.0,22.3,30.07,West,270,5.8,5.8,31,0.00,CLR,SKC,0.00,WeatherDisplay:10.37,2013-02-21 20:51:00,
2013-02-21 15:56:00,52.0,23.0,30.07,NW,315,8.1,8.1,32,0.00,CLR,SKC,0.00,WeatherDisplay:10.37,2013-02-21 20:56:00,
2013-02-21 16:01:00,52.0,23.0,30.07,West,270,6.0,6.0,32,0.00,CLR,SKC,0.00,WeatherDisplay:10.37,2013-02-21 21:01:00,
2013-02-21 16:06:00,52.0,22.3,30.07,WNW,292,6.9,6.9,31,0.00,CLR,SKC,0.00,WeatherDisplay:10.37,2013-02-21 21:06:00,
2013-02-21 16:11:00,51.0,20.6,30.07,WSW,247,10.4,10.4,30,0.00,CLR,SKC,0.00,WeatherDisplay:10.37,2013-02-21 21:11:00,
2013-02-21 16:16:00,51.0,20.6,30.07,NW,315,4.6,4.6,30,0.00,CLR,SKC,0.00,WeatherDisplay:10.37,2013-02-21 21:16:00,
2013-02-21 16:21:00,51.0,22.1,30.07,WNW,292,4.6,4.6,32,0.00,CLR,SKC,0.00,WeatherDisplay:10.37,2013-02-21 21:21:00,
2013-02-21 16:26:00,51.0,22.1,30.07,NE,45,5.0,5.0,32,0.00,CLR,SKC,0.00,WeatherDisplay:10.37,2013-02-21 21:26:00,
2013-02-21 16:31:00,51.0,22.1,30.09,NW,315,4.6,4.6,32,0.00,CLR,SKC,0.00,WeatherDisplay:10.37,2013-02-21 21:31:00,
2013-02-21 16:36:00,50.0,21.3,30.09,West,270,9.0,9.0,32,0.00,CLR,SKC,0.00,WeatherDisplay:10.37,2013-02-21 21:36:00,
2013-02-21 16:41:00,50.0,22.0,30.10,WNW,292,5.8,5.8,33,0.00,CLR,SKC,0.00,WeatherDisplay:10.37,2013-02-21 21:41:00,
2013-02-21 16:46:00,50.0,22.0,30.10,West,270,4.6,4.6,33,0.00,CLR,SKC,0.00,WeatherDisplay:10.37,2013-02-21 21:46:00,
2013-02-21 16:51:00,50.0,22.0,30.11,WNW,292,8.1,8.1,33,0.00,CLR,SKC,0.00,WeatherDisplay:10.37,2013-02-21 21:51:00,
2013-02-21 16:56:00,49.0,21.1,30.11,North,360,5.0,5.0,33,0.00,CLR,SKC,0.00,WeatherDisplay:10.37,2013-02-21 21:56:00,
2013-02-21 17:01:00,49.0,21.8,30.12,West,270,4.6,4.6,34,0.00,CLR,SKC,0.00,WeatherDisplay:10.37,2013-02-21 22:01:00,
2013-02-21 17:06:00,49.0,21.1,30.12,West,270,6.9,6.9,33,0.00,CLR,SKC,0.00,WeatherDisplay:10.37,2013-02-21 22:06:00,
2013-02-21 17:11:00,49.0,21.8,30.13,West,270,5.8,5.8,34,0.00,CLR,SKC,0.00,WeatherDisplay:10.37,2013-02-21 22:11:00,
2013-02-21 17:16:00,49.0,21.8,30.13,NW,315,8.1,8.1,34,0.00,CLR,SKC,0.00,WeatherDisplay:10.37,2013-02-21 22:16:00,
2013-02-21 17:21:00,48.0,21.6,30.13,North,360,3.5,3.5,35,0.00,CLR,SKC,0.00,WeatherDisplay:10.37,2013-02-21 22:21:00,
2013-02-21 17:26:00,48.0,21.6,30.13,NW,315,4.6,4.6,35,0.00,CLR,SKC,0.00,WeatherDisplay:10.37,2013-02-21 22:26:00,
2013-02-21 17:31:00,48.0,21.6,30.15,West,270,4.6,4.6,35,0.00,CLR,SKC,0.00,WeatherDisplay:10.37,2013-02-21 22:31:00,
2013-02-21 17:36:00,48.0,21.6,30.15,West,270,3.5,3.5,35,0.00,CLR,SKC,0.00,WeatherDisplay:10.37,2013-02-21 22:36:00,
2013-02-21 17:41:00,47.0,22.0,30.16,West,270,0.0,0.0,37,0.00,CLR,SKC,0.00,WeatherDisplay:10.37,2013-02-21 22:41:00,
2013-02-21 17:46:00,46.0,21.8,30.16,West,270,0.0,0.0,38,0.00,CLR,SKC,0.00,WeatherDisplay:10.37,2013-02-21 22:46:00,
2013-02-21 17:51:00,46.0,21.8,30.17,NNE,22,0.0,0.0,38,0.00,CLR,SKC,0.00,WeatherDisplay:10.37,2013-02-21 22:51:00,
2013-02-21 17:56:00,45.0,21.5,30.17,NNE,22,0.0,0.1,39,0.00,CLR,SKC,0.00,WeatherDisplay:10.37,2013-02-21 22:56:00,
2013-02-21 18:01:00,45.0,22.1,30.19,NNE,22,3.0,3.0,40,0.00,CLR,SKC,0.00,WeatherDisplay:10.37,2013-02-21 23:01:00,
2013-02-21 18:06:00,45.0,22.1,30.19,NNE,22,3.5,3.5,40,0.00,CLR,SKC,0.00,WeatherDisplay:10.37,2013-02-21 23:06:00,
2013-02-21 18:11:00,45.0,22.1,30.19,NNE,22,4.0,4.0,40,0.00,CLR,SKC,0.00,WeatherDisplay:10.37,2013-02-21 23:11:00,
2013-02-21 18:16:00,45.0,22.1,30.19,NNE,22,3.5,3.5,40,0.00,CLR,SKC,0.00,WeatherDisplay:10.37,2013-02-21 23:16:00,
2013-02-21 18:21:00,44.0,21.2,30.20,NNE,22,0.0,0.0,40,0.00,CLR,SKC,0.00,WeatherDisplay:10.37,2013-02-21 23:21:00,
2013-02-21 18:26:00,44.0,21.8,30.20,NNE,22,0.0,0.0,41,0.00,CLR,SKC,0.00,WeatherDisplay:10.37,2013-02-21 23:26:00,
2013-02-21 18:31:00,43.0,20.9,30.20,NNE,22,0.0,0.0,41,0.00,CLR,SKC,0.00,WeatherDisplay:10.37,2013-02-21 23:31:00,
2013-02-21 18:36:00,44.0,22.9,30.20,NNE,22,4.6,4.6,43,0.00,CLR,SKC,0.00,WeatherDisplay:10.37,2013-02-21 23:36:00,
2013-02-21 18:41:00,44.0,23.5,30.20,NNE,22,5.0,5.0,44,0.00,CLR,SKC,0.00,WeatherDisplay:10.37,2013-02-21 23:41:00,
2013-02-21 18:46:00,43.0,22.0,30.20,NNE,22,4.6,4.6,43,0.00,CLR,SKC,0.00,WeatherDisplay:10.37,2013-02-21 23:46:00,
2013-02-21 18:51:00,43.0,21.4,30.20,NNE,22,6.0,6.0,42,0.00,CLR,SKC,0.00,WeatherDisplay:10.37,2013-02-21 23:51:00,
2013-02-21 18:56:00,43.0,21.4,30.20,NNE,22,3.5,3.8,42,0.00,CLR,SKC,0.00,WeatherDisplay:10.37,2013-02-21 23:56:00,
2013-02-21 19:01:00,43.0,21.4,30.19,NNE,22,5.0,5.0,42,0.00,CLR,SKC,0.00,WeatherDisplay:10.37,2013-02-22 00:01:00,
2013-02-21 19:06:00,43.0,22.5,30.19,NNE,22,5.8,5.8,44,0.00,CLR,SKC,0.00,WeatherDisplay:10.37,2013-02-22 00:06:00,
2013-02-21 19:11:00,42.0,22.7,30.19,NE,45,4.6,4.6,46,0.00,CLR,SKC,0.00,WeatherDisplay:10.37,2013-02-22 00:11:00,
2013-02-21 19:16:00,42.0,22.7,30.19,NE,45,5.8,5.8,46,0.00,CLR,SKC,0.00,WeatherDisplay:10.37,2013-02-22 00:16:00,
2013-02-21 19:21:00,42.0,23.2,30.19,NE,45,3.5,3.5,47,0.00,CLR,SKC,0.00,WeatherDisplay:10.37,2013-02-22 00:21:00,
2013-02-21 19:26:00,42.0,24.2,30.19,NE,45,0.0,0.0,49,0.00,CLR,SKC,0.00,WeatherDisplay:10.37,2013-02-22 00:26:00,
2013-02-21 19:31:00,42.0,23.2,30.21,NE,45,1.1,1.1,47,0.00,CLR,SKC,0.00,WeatherDisplay:10.37,2013-02-22 00:31:00,
2013-02-21 19:36:00,41.0,22.3,30.21,NE,45,0.0,0.0,47,0.00,CLR,SKC,0.00,WeatherDisplay:10.37,2013-02-22 00:36:00,
2013-02-21 19:41:00,41.0,22.8,30.24,NE,45,0.0,0.0,48,0.00,CLR,SKC,0.00,WeatherDisplay:10.37,2013-02-22 00:41:00,
2013-02-21 19:46:00,41.0,23.3,30.24,NE,45,0.0,0.0,49,0.00,CLR,SKC,0.00,WeatherDisplay:10.37,2013-02-22 00:46:00,
2013-02-21 19:51:00,40.0,22.4,30.24,NE,45,0.0,0.0,49,0.00,CLR,SKC,0.00,WeatherDisplay:10.37,2013-02-22 00:51:00,
2013-02-21 19:56:00,40.0,22.4,30.24,NE,45,1.0,0.0,49,0.00,CLR,SKC,0.00,WeatherDisplay:10.37,2013-02-22 00:56:00,
2013-02-21 20:01:00,41.0,23.3,30.25,NE,45,4.0,4.0,49,0.00,CLR,SKC,0.00,WeatherDisplay:10.37,2013-02-22 01:01:00,
2013-02-21 20:06:00,41.0,23.8,30.25,NE,45,3.5,3.5,50,0.00,CLR,SKC,0.00,WeatherDisplay:10.37,2013-02-22 01:06:00,
2013-02-21 20:11:00,42.0,23.7,30.25,NNE,22,4.6,4.6,48,0.00,CLR,SKC,0.00,WeatherDisplay:10.37,2013-02-22 01:11:00,
2013-02-21 20:16:00,42.0,23.2,30.25,NE,45,5.8,5.8,47,0.00,CLR,SKC,0.00,WeatherDisplay:10.37,2013-02-22 01:16:00,
2013-02-21 20:21:00,42.0,23.2,30.24,ENE,67,4.0,4.0,47,0.00,CLR,SKC,0.00,WeatherDisplay:10.37,2013-02-22 01:21:00,
2013-02-21 20:26:00,42.0,23.2,30.24,NNE,22,3.5,3.5,47,0.00,CLR,SKC,0.00,WeatherDisplay:10.37,2013-02-22 01:26:00,
2013-02-21 20:31:00,41.0,22.8,30.24,ENE,67,3.0,3.0,48,0.00,CLR,SKC,0.00,WeatherDisplay:10.37,2013-02-22 01:31:00,
2013-02-21 20:36:00,41.0,22.8,30.24,ESE,112,0.0,0.0,48,0.00,CLR,SKC,0.00,WeatherDisplay:10.37,2013-02-22 01:36:00,
2013-02-21 20:41:00,41.0,24.2,30.25,ESE,112,0.0,0.0,51,0.00,CLR,SKC,0.00,WeatherDisplay:10.37,2013-02-22 01:41:00,
2013-02-21 20:46:00,40.0,22.4,30.25,ESE,112,0.0,0.0,49,0.00,CLR,SKC,0.00,WeatherDisplay:10.37,2013-02-22 01:46:00,
2013-02-21 20:51:00,40.0,23.8,30.25,ESE,112,0.0,0.0,52,0.00,CLR,SKC,0.00,WeatherDisplay:10.37,2013-02-22 01:51:00,
2013-02-21 20:56:00,40.0,22.4,30.25,NE,45,3.5,3.6,49,0.00,CLR,SKC,0.00,WeatherDisplay:10.37,2013-02-22 01:56:00,
2013-02-21 21:01:00,41.0,22.8,30.26,ENE,67,4.6,4.6,48,0.00,CLR,SKC,0.00,WeatherDisplay:10.37,2013-02-22 02:01:00,
2013-02-21 21:06:00,41.0,23.3,30.26,East,90,6.0,6.0,49,0.00,CLR,SKC,0.00,WeatherDisplay:10.37,2013-02-22 02:06:00,
2013-02-21 21:11:00,41.0,22.8,30.25,NE,45,5.8,5.8,48,0.00,CLR,SKC,0.00,WeatherDisplay:10.37,2013-02-22 02:11:00,
2013-02-21 21:16:00,41.0,22.3,30.25,ENE,67,3.5,3.5,47,0.00,CLR,SKC,0.00,WeatherDisplay:10.37,2013-02-22 02:16:00,
2013-02-21 21:21:00,41.0,22.3,30.24,ENE,67,4.0,4.0,47,0.00,CLR,SKC,0.00,WeatherDisplay:10.37,2013-02-22 02:21:00,
2013-02-21 21:26:00,41.0,23.3,30.24,East,90,5.0,5.0,49,0.00,CLR,SKC,0.00,WeatherDisplay:10.37,2013-02-22 02:26:00,
2013-02-21 21:31:00,41.0,22.8,30.24,ENE,67,8.1,8.1,48,0.00,CLR,SKC,0.00,WeatherDisplay:10.37,2013-02-22 02:31:00,
2013-02-21 21:36:00,41.0,22.8,30.24,East,90,8.1,8.1,48,0.00,CLR,SKC,0.00,WeatherDisplay:10.37,2013-02-22 02:36:00,
2013-02-21 21:41:00,41.0,23.3,30.25,East,90,10.4,10.4,49,0.00,CLR,SKC,0.00,WeatherDisplay:10.37,2013-02-22 02:41:00,
2013-02-21 21:46:00,41.0,23.8,30.25,ENE,67,4.6,4.6,50,0.00,CLR,SKC,0.00,WeatherDisplay:10.37,2013-02-22 02:46:00,
2013-02-21 21:51:00,41.0,23.8,30.25,SSE,157,8.1,8.1,50,0.00,CLR,SKC,0.00,WeatherDisplay:10.37,2013-02-22 02:51:00,
2013-02-21 21:56:00,41.0,23.8,30.25,ESE,112,8.1,8.1,50,0.00,CLR,SKC,0.00,WeatherDisplay:10.37,2013-02-22 02:56:00,
2013-02-21 22:01:00,41.0,24.2,30.25,ESE,112,5.8,5.8,51,0.00,CLR,SKC,0.00,WeatherDisplay:10.37,2013-02-22 03:01:00,
2013-02-21 22:06:00,41.0,23.8,30.25,ENE,67,8.0,8.0,50,0.00,CLR,SKC,0.00,WeatherDisplay:10.37,2013-02-22 03:06:00,
2013-02-21 22:11:00,40.0,23.3,30.25,ENE,67,5.8,5.8,51,0.00,CLR,SKC,0.00,WeatherDisplay:10.37,2013-02-22 03:11:00,
2013-02-21 22:16:00,40.0,23.3,30.25,ENE,67,6.9,6.9,51,0.00,CLR,SKC,0.00,WeatherDisplay:10.37,2013-02-22 03:16:00,
2013-02-21 22:21:00,40.0,23.3,30.25,SE,135,5.8,5.8,51,0.00,CLR,SKC,0.00,WeatherDisplay:10.37,2013-02-22 03:21:00,
2013-02-21 22:26:00,40.0,23.3,30.25,ENE,67,3.5,3.5,51,0.00,CLR,SKC,0.00,WeatherDisplay:10.37,2013-02-22 03:26:00,
2013-02-21 22:31:00,40.0,23.3,30.26,East,90,5.8,5.8,51,0.00,CLR,SKC,0.00,WeatherDisplay:10.37,2013-02-22 03:31:00,
2013-02-21 22:36:00,40.0,23.3,30.26,NNE,22,6.0,6.0,51,0.00,CLR,SKC,0.00,WeatherDisplay:10.37,2013-02-22 03:36:00,
2013-02-21 22:41:00,40.0,23.3,30.27,ENE,67,4.0,4.0,51,0.00,CLR,SKC,0.00,WeatherDisplay:10.37,2013-02-22 03:41:00,
2013-02-21 22:46:00,40.0,23.3,30.27,SE,135,4.0,4.0,51,0.00,CLR,SKC,0.00,WeatherDisplay:10.37,2013-02-22 03:46:00,
2013-02-21 22:51:00,40.0,23.3,30.27,ENE,67,4.6,4.6,51,0.00,CLR,SKC,0.00,WeatherDisplay:10.37,2013-02-22 03:51:00,
2013-02-21 22:56:00,40.0,23.3,30.27,ENE,67,3.5,3.5,51,0.00,CLR,SKC,0.00,WeatherDisplay:10.37,2013-02-22 03:56:00,
2013-02-21 23:01:00,40.0,22.8,30.29,NE,45,6.9,6.9,50,0.00,CLR,SKC,0.00,WeatherDisplay:10.37,2013-02-22 04:01:00,
2013-02-21 23:06:00,40.0,22.8,30.29,NE,45,3.5,3.5,50,0.00,CLR,SKC,0.00,WeatherDisplay:10.37,2013-02-22 04:06:00,
2013-02-21 23:11:00,40.0,22.8,30.30,NE,45,7.0,7.0,50,0.00,CLR,SKC,0.00,WeatherDisplay:10.37,2013-02-22 04:11:00,
2013-02-21 23:16:00,40.0,22.4,30.30,East,90,6.9,6.9,49,0.00,CLR,SKC,0.00,WeatherDisplay:10.37,2013-02-22 04:16:00,
2013-02-21 23:21:00,40.0,22.8,30.30,ENE,67,8.1,8.1,50,0.00,CLR,SKC,0.00,WeatherDisplay:10.37,2013-02-22 04:21:00,
2013-02-21 23:26:00,40.0,22.8,30.30,ENE,67,5.8,5.8,50,0.00,CLR,SKC,0.00,WeatherDisplay:10.37,2013-02-22 04:26:00,
2013-02-21 23:31:00,40.0,22.8,30.29,NE,45,4.6,4.6,50,0.00,CLR,SKC,0.00,WeatherDisplay:10.37,2013-02-22 04:31:00,
2013-02-21 23:36:00,40.0,23.3,30.29,ENE,67,5.8,5.8,51,0.00,CLR,SKC,0.00,WeatherDisplay:10.37,2013-02-22 04:36:00,
2013-02-21 23:41:00,40.0,23.3,30.29,East,90,8.1,8.1,51,0.00,CLR,SKC,0.00,WeatherDisplay:10.37,2013-02-22 04:41:00,
2013-02-21 23:46:00,39.0,22.4,30.29,ENE,67,5.8,5.8,51,0.00,CLR,SKC,0.00,WeatherDisplay:10.37,2013-02-22 04:46:00,
2013-02-21 23:51:00,39.0,22.4,30.28,NE,45,8.1,8.1,51,0.00,CLR,SKC,0.00,WeatherDisplay:10.37,2013-02-22 04:51:00,
2013-02-21 23:56:00,39.0,22.4,30.28,NE,45,6.0,6.0,51,0.00,CLR,SKC,0.00,WeatherDisplay:10.37,2013-02-22 04:56:00,